createdAt,value
2023-08-06T00:03:06.993Z,14.40
2023-08-06T00:08:09.216Z,14.40
2023-08-06T00:13:11.392Z,14.40
2023-08-06T00:18:13.476Z,14.40
2023-08-06T00:23:15.552Z,14.40
2023-08-06T00:28:17.615Z,14.40
2023-08-06T00:33:19.657Z,14.40
2023-08-06T00:38:22.624Z,14.40
2023-08-06T00:43:24.672Z,14.40
2023-08-06T00:48:27.073Z,14.40
2023-08-06T00:53:29.183Z,14.40
2023-08-06T00:58:31.402Z,14.40
2023-08-06T01:03:33.405Z,14.40
2023-08-06T01:08:59.999Z,14.40
2023-08-06T01:14:28.490Z,14.40
2023-08-06T01:19:30.546Z,14.40
2023-08-06T01:24:32.569Z,14.40
2023-08-06T01:29:40.245Z,14.30
2023-08-06T01:34:44.832Z,14.30
2023-08-06T01:39:46.853Z,14.30
2023-08-06T01:44:49.011Z,14.30
2023-08-06T01:49:51.026Z,14.30
2023-08-06T01:54:55.100Z,14.30
2023-08-06T01:59:57.234Z,14.30
2023-08-06T02:05:00.437Z,14.30
2023-08-06T02:10:02.690Z,14.30
2023-08-06T02:15:05.863Z,14.30
2023-08-06T02:20:08.292Z,14.30
2023-08-06T02:25:10.493Z,14.30
2023-08-06T02:30:12.463Z,14.30
2023-08-06T02:35:14.956Z,14.40
2023-08-06T02:40:16.964Z,14.30
2023-08-06T02:45:19.057Z,14.30
2023-08-06T02:50:21.414Z,14.30
2023-08-06T02:55:23.599Z,14.40
2023-08-06T03:00:26.700Z,14.30
2023-08-06T03:05:29.032Z,14.30
2023-08-06T03:10:31.385Z,14.40
2023-08-06T03:15:37.212Z,14.30
2023-08-06T03:20:40.049Z,14.30
2023-08-06T03:25:43.610Z,14.40
2023-08-06T03:30:46.073Z,14.30
2023-08-06T03:35:49.307Z,14.40
2023-08-06T03:40:52.745Z,14.40
2023-08-06T03:45:54.968Z,14.30
2023-08-06T03:50:57.041Z,14.30
2023-08-06T03:56:01.816Z,14.30
2023-08-06T04:01:05.896Z,14.30
2023-08-06T04:06:17.405Z,14.20
2023-08-06T04:11:19.410Z,14.20
2023-08-06T04:16:21.425Z,14.20
2023-08-06T04:21:23.437Z,14.20
2023-08-06T04:26:25.453Z,14.10
2023-08-06T04:31:27.581Z,14.10
2023-08-06T04:36:30.132Z,14.10
2023-08-06T04:41:32.336Z,14.10
2023-08-06T04:46:34.448Z,14.10
2023-08-06T04:51:36.497Z,14.00
2023-08-06T04:56:38.780Z,14.00
2023-08-06T05:01:40.763Z,14.00
2023-08-06T05:06:42.845Z,14.00
2023-08-06T05:11:44.841Z,14.10
2023-08-06T05:16:46.826Z,14.10
2023-08-06T05:21:48.837Z,14.20
2023-08-06T05:26:50.903Z,14.20
2023-08-06T05:31:53.262Z,14.30
2023-08-06T05:36:55.664Z,14.30
2023-08-06T05:41:57.676Z,14.30
2023-08-06T05:46:59.748Z,14.40
2023-08-06T05:52:01.780Z,14.40
2023-08-06T05:57:03.884Z,14.50
2023-08-06T06:02:05.967Z,14.50
2023-08-06T06:07:07.919Z,14.50
2023-08-06T06:12:09.944Z,14.60
2023-08-06T06:17:11.915Z,14.70
2023-08-06T06:22:13.937Z,14.80
2023-08-06T06:27:15.933Z,14.90
2023-08-06T06:32:17.905Z,15.00
2023-08-06T06:37:19.865Z,15.10
2023-08-06T06:42:21.897Z,15.20
2023-08-06T06:47:27.083Z,15.20
2023-08-06T06:52:29.107Z,15.30
2023-08-06T06:57:31.131Z,15.30
2023-08-06T07:02:33.173Z,15.30
2023-08-06T07:07:35.332Z,15.40
2023-08-06T07:12:38.044Z,15.40
2023-08-06T07:17:40.107Z,15.50
2023-08-06T07:22:42.121Z,15.60
2023-08-06T07:27:44.216Z,15.60
2023-08-06T07:32:46.262Z,15.70
2023-08-06T07:37:48.378Z,15.70
2023-08-06T07:42:50.337Z,15.70
2023-08-06T07:47:52.524Z,15.80
2023-08-06T07:52:54.612Z,15.90
2023-08-06T07:57:56.564Z,15.90
2023-08-06T08:02:58.581Z,15.90
2023-08-06T08:08:00.721Z,16.00
2023-08-06T08:13:05.730Z,16.00
2023-08-06T08:18:09.512Z,16.20
2023-08-06T08:23:11.504Z,16.50
2023-08-06T08:28:13.566Z,16.50
2023-08-06T08:33:15.592Z,16.40
2023-08-06T08:38:17.624Z,16.30
2023-08-06T08:43:20.712Z,16.40
2023-08-06T08:48:23.056Z,16.40
2023-08-06T08:53:26.253Z,16.60
2023-08-06T08:58:28.288Z,16.70
2023-08-06T09:03:30.705Z,16.80
2023-08-06T09:08:35.557Z,16.70
2023-08-06T09:13:38.357Z,16.80
2023-08-06T09:18:40.473Z,17.00
2023-08-06T09:23:42.597Z,17.10
2023-08-06T09:28:44.973Z,17.40
2023-08-06T09:33:50.528Z,17.20
2023-08-06T09:38:52.586Z,17.20
2023-08-06T09:43:54.584Z,17.20
2023-08-06T09:48:56.639Z,17.10
2023-08-06T09:53:58.711Z,17.50
2023-08-06T09:59:01.031Z,17.60
2023-08-06T10:04:11.208Z,17.50
2023-08-06T10:09:20.453Z,17.50
2023-08-06T10:14:25.777Z,17.40
2023-08-06T10:19:28.462Z,17.30
2023-08-06T10:24:46.084Z,17.40
2023-08-06T10:29:48.098Z,17.50
2023-08-06T10:34:59.230Z,17.70
2023-08-06T10:40:01.179Z,17.70
2023-08-06T10:45:12.372Z,17.80
2023-08-06T10:50:17.546Z,18.10
2023-08-06T10:55:26.331Z,18.10
2023-08-06T11:00:28.390Z,18.40
2023-08-06T11:05:30.428Z,18.90
2023-08-06T11:10:34.472Z,18.40
2023-08-06T11:15:36.521Z,18.30
2023-08-06T11:20:38.865Z,18.50
2023-08-06T11:25:47.182Z,19.00
2023-08-06T11:30:50.018Z,19.20
2023-08-06T11:35:52.415Z,19.20
2023-08-06T11:40:54.472Z,19.30
2023-08-06T11:45:56.961Z,19.90
2023-08-06T11:50:59.988Z,19.80
2023-08-06T11:56:02.182Z,19.90
2023-08-06T12:01:04.197Z,19.20
2023-08-06T12:06:06.316Z,19.00
2023-08-06T12:11:08.271Z,19.50
2023-08-06T12:16:10.381Z,19.40
2023-08-06T12:21:12.453Z,19.70
2023-08-06T12:26:14.425Z,20.30
2023-08-06T12:31:16.550Z,20.70
2023-08-06T12:36:18.540Z,20.90
2023-08-06T12:41:20.612Z,20.30
2023-08-06T12:46:22.642Z,19.60
2023-08-06T12:51:26.138Z,19.90
2023-08-06T12:56:28.227Z,20.40
2023-08-06T13:01:30.302Z,19.90
2023-08-06T13:06:36.907Z,20.60
2023-08-06T13:11:39.575Z,20.80
2023-08-06T13:16:42.397Z,20.20
2023-08-06T13:21:47.215Z,20.70
2023-08-06T13:26:49.323Z,21.00
2023-08-06T13:31:51.424Z,20.40
2023-08-06T13:36:54.070Z,19.70
2023-08-06T13:41:56.466Z,19.90
2023-08-06T13:46:58.458Z,19.80
2023-08-06T13:52:12.255Z,19.50
2023-08-06T13:57:21.944Z,19.20
2023-08-06T14:02:24.140Z,18.80
2023-08-06T14:07:26.360Z,18.60
2023-08-06T14:12:28.391Z,18.70
2023-08-06T14:17:30.702Z,19.90
2023-08-06T14:22:32.763Z,20.60
2023-08-06T14:27:34.897Z,21.30
2023-08-06T14:32:36.961Z,21.10
2023-08-06T14:37:40.510Z,20.90
2023-08-06T14:42:42.561Z,20.70
2023-08-06T14:47:44.663Z,20.60
2023-08-06T14:52:46.824Z,19.70
2023-08-06T14:57:48.947Z,19.90
2023-08-06T15:02:51.276Z,21.20
2023-08-06T15:07:54.328Z,22.10
2023-08-06T15:12:56.523Z,21.20
2023-08-06T15:17:59.316Z,21.30
2023-08-06T15:23:01.351Z,21.20
2023-08-06T15:28:03.357Z,21.40
2023-08-06T15:33:05.428Z,21.40
2023-08-06T15:38:07.509Z,21.70
2023-08-06T15:43:09.581Z,21.50
2023-08-06T15:48:11.662Z,22.00
2023-08-06T15:53:13.880Z,21.90
2023-08-06T15:58:16.683Z,20.90
2023-08-06T16:03:18.642Z,20.80
2023-08-06T16:08:20.832Z,20.00
2023-08-06T16:13:22.859Z,20.50
2023-08-06T16:18:24.838Z,20.60
2023-08-06T16:23:26.810Z,20.20
2023-08-06T16:28:30.162Z,20.00
2023-08-06T16:33:32.161Z,19.90
2023-08-06T16:38:34.141Z,20.30
2023-08-06T16:43:36.108Z,20.40
2023-08-06T16:48:38.222Z,21.30
2023-08-06T16:53:40.704Z,21.30
2023-08-06T16:58:42.724Z,20.80
2023-08-06T17:03:44.822Z,19.80
2023-08-06T17:08:46.856Z,19.10
2023-08-06T17:13:48.804Z,19.00
2023-08-06T17:18:50.950Z,18.90
2023-08-06T17:23:52.938Z,19.00
2023-08-06T17:28:55.025Z,19.00
2023-08-06T17:33:57.145Z,19.10
2023-08-06T17:38:59.236Z,19.20
2023-08-06T17:44:01.206Z,19.70
2023-08-06T17:49:03.244Z,20.20
2023-08-06T17:54:05.324Z,20.70
2023-08-06T17:59:07.323Z,20.40
2023-08-06T18:04:10.022Z,20.20
2023-08-06T18:09:12.013Z,19.70
2023-08-06T18:14:14.033Z,19.70
2023-08-06T18:19:16.604Z,19.20
2023-08-06T18:24:18.726Z,18.80
2023-08-06T18:29:20.774Z,18.40
2023-08-06T18:34:22.823Z,18.70
2023-08-06T18:39:24.828Z,19.00
2023-08-06T18:44:26.815Z,18.80
2023-08-06T18:49:28.786Z,18.30
2023-08-06T18:54:30.854Z,18.10
2023-08-06T18:59:32.851Z,18.00
2023-08-06T19:04:34.810Z,17.60
2023-08-06T19:09:36.864Z,17.40
2023-08-06T19:14:38.838Z,17.20
2023-08-06T19:19:44.762Z,17.20
2023-08-06T19:24:46.902Z,17.10
2023-08-06T19:29:49.230Z,17.00
2023-08-06T19:34:51.248Z,17.00
2023-08-06T19:39:53.289Z,16.80
2023-08-06T19:44:55.340Z,16.80
2023-08-06T19:49:57.483Z,16.70
2023-08-06T19:54:59.568Z,16.60
2023-08-06T20:00:01.968Z,16.60
2023-08-06T20:05:14.423Z,16.50
2023-08-06T20:10:16.455Z,16.50
2023-08-06T20:15:18.478Z,16.40
2023-08-06T20:20:20.596Z,16.40
2023-08-06T20:25:22.553Z,16.40
2023-08-06T20:30:24.712Z,16.40
2023-08-06T20:35:27.200Z,16.30
2023-08-06T20:40:29.171Z,16.20
2023-08-06T20:45:31.181Z,16.00
2023-08-06T20:50:33.218Z,16.00
2023-08-06T20:55:35.789Z,15.90
2023-08-06T21:00:37.887Z,15.80
2023-08-06T21:05:39.900Z,15.80
2023-08-06T21:10:41.933Z,15.70
2023-08-06T21:15:43.922Z,15.80
2023-08-06T21:20:45.888Z,15.70
2023-08-06T21:25:55.801Z,15.70
2023-08-06T21:30:58.829Z,15.70
2023-08-06T21:36:04.349Z,15.60
2023-08-06T21:41:10.752Z,15.70
2023-08-06T21:46:13.579Z,15.70
2023-08-06T21:51:16.773Z,15.60
2023-08-06T21:56:18.903Z,15.50
2023-08-06T22:01:21.515Z,15.40
2023-08-06T22:06:23.554Z,15.40
2023-08-06T22:11:25.627Z,15.40
2023-08-06T22:16:27.664Z,15.40
2023-08-06T22:21:29.775Z,15.40
2023-08-06T22:26:31.774Z,15.40
2023-08-06T22:31:33.747Z,15.40
2023-08-06T22:36:35.721Z,15.50
2023-08-06T22:41:37.725Z,15.50
2023-08-06T22:46:39.736Z,15.40
2023-08-06T22:51:41.742Z,15.30
2023-08-06T22:56:43.822Z,15.30
2023-08-06T23:01:45.914Z,15.20
2023-08-06T23:06:47.892Z,15.00
2023-08-06T23:11:49.937Z,15.00
2023-08-06T23:16:51.944Z,15.00
2023-08-06T23:21:54.377Z,15.10
2023-08-06T23:26:56.598Z,15.10
2023-08-06T23:31:58.806Z,15.00
2023-08-06T23:37:01.089Z,15.00
2023-08-06T23:42:03.199Z,15.00
2023-08-06T23:47:05.365Z,15.00
2023-08-06T23:52:07.515Z,14.90
2023-08-06T23:57:09.559Z,14.90
